Time;durP1;ratioP1;P1;durP2;ratioP2;P2;SDS_P1;SDS_P2;PMS_P1;PMS_P2;Temp;Humidity;BMP_temperature;BMP_pressure;BME280_temperature;BME280_humidity;BME280_pressure;Samples;Min_cycle;Max_cycle;Signal;HPM_P1;HPM_P2
2022/12/09 00:02:13;;;;;;;130.68;35.97;;;;;;;;;;4927684;28;20114;-69
2022/12/09 00:04:41;;;;;;;123.63;33.88;;;;;;;;;;4928323;28;20116;-68
2022/12/09 00:07:06;;;;;;;100.63;32.20;;;;;;;;;;4929961;28;21123;-70
2022/12/09 00:09:34;;;;;;;109.20;33.08;;;;;;;;;;4946868;28;20079;-72
2022/12/09 00:11:59;;;;;;;105.78;32.45;;;;;;;;;;4948253;28;20038;-70
2022/12/09 00:14:24;;;;;;;96.75;31.63;;;;;;;;;;4945496;28;20829;-71
2022/12/09 00:16:50;;;;;;;100.07;33.38;;;;;;;;;;4945796;28;20034;-69
2022/12/09 00:19:15;;;;;;;104.93;33.65;;;;;;;;;;4943595;28;20046;-70
2022/12/09 00:21:42;;;;;;;103.70;34.28;;;;;;;;;;4947676;28;20031;-69
2022/12/09 00:24:09;;;;;;;99.20;33.60;;;;;;;;;;4945874;28;20077;-69
2022/12/09 00:26:35;;;;;;;97.57;33.57;;;;;;;;;;4942177;28;20681;-68
2022/12/09 00:29:01;;;;;;;100.82;35.33;;;;;;;;;;4946513;28;20070;-69
2022/12/09 00:31:31;;;;;;;105.03;36.25;;;;;;;;;;4944876;28;20091;-69
2022/12/09 00:33:57;;;;;;;108.07;36.42;;;;;;;;;;4928829;28;20039;-69
2022/12/09 00:36:26;;;;;;;112.43;36.70;;;;;;;;;;4944143;28;20041;-69
2022/12/09 00:38:52;;;;;;;106.07;36.05;;;;;;;;;;4924635;28;20595;-69
2022/12/09 00:41:17;;;;;;;114.80;38.15;;;;;;;;;;4945325;28;20247;-70
2022/12/09 00:43:44;;;;;;;103.30;36.88;;;;;;;;;;4945467;28;20053;-69
2022/12/09 00:46:10;;;;;;;103.00;37.50;;;;;;;;;;4926353;28;20046;-70
2022/12/09 00:48:37;;;;;;;114.83;39.33;;;;;;;;;;4926610;28;20050;-69
2022/12/09 00:51:03;;;;;;;113.90;40.45;;;;;;;;;;4944443;28;20062;-69
2022/12/09 00:53:28;;;;;;;120.68;44.05;;;;;;;;;;4944034;28;20647;-69
2022/12/09 00:55:53;;;;;;;126.50;47.70;;;;;;;;;;4942396;28;20129;-69
2022/12/09 00:58:19;;;;;;;124.23;45.50;;;;;;;;;;4926457;28;20084;-69
2022/12/09 01:00:44;;;;;;;117.75;45.67;;;;;;;;;;4942622;28;20125;-69
2022/12/09 01:03:13;;;;;;;123.40;48.50;;;;;;;;;;4943236;28;20142;-69
2022/12/09 01:05:41;;;;;;;116.72;44.75;;;;;;;;;;4911076;28;20046;-69
2022/12/09 01:08:07;;;;;;;97.18;40.97;;;;;;;;;;4943240;28;20121;-70
2022/12/09 01:10:33;;;;;;;118.03;50.67;;;;;;;;;;4923560;28;20047;-70
2022/12/09 01:12:58;;;;;;;116.20;49.80;;;;;;;;;;4944149;28;20046;-69
2022/12/09 01:15:24;;;;;;;108.07;46.10;;;;;;;;;;4927993;28;20184;-69
2022/12/09 01:17:49;;;;;;;114.32;49.30;;;;;;;;;;4924959;28;20054;-69
2022/12/09 01:20:15;;;;;;;112.43;48.20;;;;;;;;;;4942654;28;20100;-69
2022/12/09 01:22:43;;;;;;;121.90;48.65;;;;;;;;;;4942525;28;20046;-69
2022/12/09 01:25:10;;;;;;;113.93;49.03;;;;;;;;;;4943970;28;20857;-66
2022/12/09 01:27:36;;;;;;;117.20;49.63;;;;;;;;;;4941569;28;20567;-67
2022/12/09 01:30:01;;;;;;;128.82;51.25;;;;;;;;;;4942474;28;20115;-67
2022/12/09 01:32:26;;;;;;;112.53;47.40;;;;;;;;;;4941936;28;20822;-67
2022/12/09 01:34:53;;;;;;;118.72;48.88;;;;;;;;;;4908018;28;20142;-67
2022/12/09 01:37:21;;;;;;;122.90;47.40;;;;;;;;;;4942973;28;20042;-66
2022/12/09 01:39:46;;;;;;;110.25;46.58;;;;;;;;;;4940720;28;20050;-65
2022/12/09 01:42:19;;;;;;;117.90;48.17;;;;;;;;;;4942755;28;20043;-66
2022/12/09 01:45:04;;;;;;;125.28;52.17;;;;;;;;;;4942950;28;20742;-66
2022/12/09 01:47:29;;;;;;;122.60;51.43;;;;;;;;;;4927698;28;20046;-67
2022/12/09 01:49:54;;;;;;;133.80;54.27;;;;;;;;;;4941551;28;22344;-67
2022/12/09 01:52:22;;;;;;;144.90;53.03;;;;;;;;;;4943132;28;20042;-68
2022/12/09 01:54:49;;;;;;;124.40;47.03;;;;;;;;;;4926016;28;20058;-67
2022/12/09 01:57:17;;;;;;;131.88;47.75;;;;;;;;;;4922657;28;20039;-67
2022/12/09 01:59:45;;;;;;;133.07;48.03;;;;;;;;;;4940849;28;20123;-67
2022/12/09 02:02:14;;;;;;;113.67;43.67;;;;;;;;;;4943318;28;20982;-67
2022/12/09 02:04:44;;;;;;;144.97;48.87;;;;;;;;;;4921260;28;20039;-66
2022/12/09 02:07:10;;;;;;;147.15;53.80;;;;;;;;;;4941782;28;20067;-67
2022/12/09 02:09:38;;;;;;;141.77;50.50;;;;;;;;;;4921505;28;20173;-67
2022/12/09 02:12:14;;;;;;;141.60;48.77;;;;;;;;;;4925955;28;20038;-66
2022/12/09 02:14:48;;;;;;;132.25;49.55;;;;;;;;;;4924954;28;20189;-66
2022/12/09 02:17:22;;;;;;;120.53;45.55;;;;;;;;;;4921509;28;20872;-67
2022/12/09 02:19:54;;;;;;;121.83;43.77;;;;;;;;;;4922103;28;20057;-67
2022/12/09 02:22:25;;;;;;;109.10;39.87;;;;;;;;;;4941699;28;20038;-66
2022/12/09 02:25:00;;;;;;;96.90;37.70;;;;;;;;;;4942468;28;20048;-66
2022/12/09 02:27:32;;;;;;;96.78;38.58;;;;;;;;;;4921513;28;20050;-67
2022/12/09 02:30:12;;;;;;;70.40;29.20;;;;;;;;;;4940098;28;20851;-66
2022/12/09 02:32:47;;;;;;;79.80;35.03;;;;;;;;;;4942000;28;20127;-66
2022/12/09 02:35:22;;;;;;;85.70;34.60;;;;;;;;;;4942280;28;20143;-66
2022/12/09 02:37:53;;;;;;;77.82;31.65;;;;;;;;;;4942898;28;20690;-66
2022/12/09 02:40:20;;;;;;;77.28;30.80;;;;;;;;;;4942584;28;20052;-67
2022/12/09 02:42:47;;;;;;;79.82;31.08;;;;;;;;;;4941604;28;20849;-66
2022/12/09 02:45:13;;;;;;;74.05;31.20;;;;;;;;;;4941000;28;20034;-66
2022/12/09 02:47:41;;;;;;;83.30;32.20;;;;;;;;;;4941890;28;20042;-66
2022/12/09 02:50:09;;;;;;;75.63;33.13;;;;;;;;;;4924573;28;20153;-66
2022/12/09 02:52:40;;;;;;;78.78;34.10;;;;;;;;;;4942193;28;20030;-66
2022/12/09 02:55:07;;;;;;;78.47;34.13;;;;;;;;;;4940864;28;20042;-66
2022/12/09 02:57:34;;;;;;;80.72;34.65;;;;;;;;;;4925331;28;20038;-66
2022/12/09 02:59:59;;;;;;;80.35;35.53;;;;;;;;;;4921140;28;20127;-67
2022/12/09 03:02:30;;;;;;;89.87;41.73;;;;;;;;;;4940695;28;20583;-67
2022/12/09 03:05:01;;;;;;;89.13;42.05;;;;;;;;;;4941989;28;20069;-66
2022/12/09 03:07:31;;;;;;;94.70;41.33;;;;;;;;;;4920723;28;20109;-67
2022/12/09 03:10:00;;;;;;;87.87;39.60;;;;;;;;;;4922739;28;20038;-66
2022/12/09 03:12:28;;;;;;;79.30;35.08;;;;;;;;;;4923833;28;21228;-66
2022/12/09 03:14:54;;;;;;;73.45;32.88;;;;;;;;;;4940648;28;20047;-66
2022/12/09 03:17:27;;;;;;;66.05;28.77;;;;;;;;;;4940691;28;20139;-66
2022/12/09 03:19:54;;;;;;;55.10;27.52;;;;;;;;;;4944282;28;20196;-66
2022/12/09 03:22:23;;;;;;;68.75;29.05;;;;;;;;;;4939820;28;20042;-66
2022/12/09 03:24:48;;;;;;;67.05;32.22;;;;;;;;;;4942202;28;20578;-66
2022/12/09 03:27:16;;;;;;;70.50;31.95;;;;;;;;;;4940307;28;20132;-65
2022/12/09 03:29:43;;;;;;;65.32;31.38;;;;;;;;;;4940139;28;20979;-66
2022/12/09 03:32:10;;;;;;;65.90;29.65;;;;;;;;;;4940585;28;20782;-66
2022/12/09 03:34:41;;;;;;;61.10;31.02;;;;;;;;;;4941690;28;20562;-65
2022/12/09 03:37:08;;;;;;;64.35;28.25;;;;;;;;;;4931350;28;20815;-67
2022/12/09 03:39:36;;;;;;;63.17;29.30;;;;;;;;;;4920817;28;20128;-67
2022/12/09 03:42:04;;;;;;;67.20;30.65;;;;;;;;;;4939628;28;20121;-65
2022/12/09 03:44:42;;;;;;;70.85;31.65;;;;;;;;;;4940821;28;20096;-65
2022/12/09 03:47:08;;;;;;;72.95;32.85;;;;;;;;;;4939876;28;20230;-66
2022/12/09 03:49:37;;;;;;;66.30;31.85;;;;;;;;;;4921057;28;20116;-65
2022/12/09 03:52:09;;;;;;;74.43;33.15;;;;;;;;;;4940230;28;20038;-67
2022/12/09 03:54:40;;;;;;;72.20;34.25;;;;;;;;;;4942392;28;20031;-66
2022/12/09 03:57:08;;;;;;;75.07;33.42;;;;;;;;;;4924970;28;20038;-66
2022/12/09 03:59:33;;;;;;;69.30;32.55;;;;;;;;;;4941630;28;20537;-66
2022/12/09 04:01:59;;;;;;;69.63;29.88;;;;;;;;;;4941459;28;20035;-65
2022/12/09 04:04:25;;;;;;;68.78;32.20;;;;;;;;;;4946227;28;20066;-66
2022/12/09 04:06:51;;;;;;;69.63;31.30;;;;;;;;;;4943628;28;20085;-66
2022/12/09 04:09:17;;;;;;;68.60;30.90;;;;;;;;;;4944259;28;20058;-66
2022/12/09 04:11:44;;;;;;;72.57;32.53;;;;;;;;;;4944556;28;20046;-66
2022/12/09 04:14:10;;;;;;;81.05;34.22;;;;;;;;;;4942801;28;20066;-66
2022/12/09 04:16:35;;;;;;;79.20;35.00;;;;;;;;;;4923908;28;20806;-66
2022/12/09 04:19:00;;;;;;;76.50;35.15;;;;;;;;;;4925519;28;20039;-66
2022/12/09 04:21:26;;;;;;;75.10;33.97;;;;;;;;;;4928366;28;20863;-66
2022/12/09 04:23:51;;;;;;;79.13;34.25;;;;;;;;;;4944135;28;20038;-66
2022/12/09 04:26:19;;;;;;;78.03;34.80;;;;;;;;;;4945025;28;20120;-66
2022/12/09 04:28:46;;;;;;;84.53;38.53;;;;;;;;;;4944524;28;20154;-66
2022/12/09 04:31:12;;;;;;;92.20;39.65;;;;;;;;;;4945030;28;20036;-69
2022/12/09 04:33:38;;;;;;;91.55;40.83;;;;;;;;;;4942475;28;20164;-68
2022/12/09 04:36:04;;;;;;;101.93;40.35;;;;;;;;;;4943266;28;20034;-68
2022/12/09 04:38:32;;;;;;;97.07;40.15;;;;;;;;;;4943870;28;20046;-68
2022/12/09 04:41:03;;;;;;;107.00;40.70;;;;;;;;;;4926935;28;20057;-68
2022/12/09 04:43:28;;;;;;;95.75;38.92;;;;;;;;;;4942738;28;20043;-69
2022/12/09 04:45:53;;;;;;;100.60;40.05;;;;;;;;;;4945406;28;20158;-68
2022/12/09 04:48:21;;;;;;;108.07;42.50;;;;;;;;;;4926524;28;20304;-67
2022/12/09 04:50:49;;;;;;;111.97;41.05;;;;;;;;;;4926525;28;20048;-68
2022/12/09 04:53:14;;;;;;;115.18;41.78;;;;;;;;;;4922783;28;20037;-68
2022/12/09 04:55:39;;;;;;;115.50;42.22;;;;;;;;;;4944302;28;20042;-69
2022/12/09 04:58:10;;;;;;;126.43;43.93;;;;;;;;;;4945073;28;20035;-67
2022/12/09 05:00:37;;;;;;;133.00;47.47;;;;;;;;;;4943695;28;20112;-68
2022/12/09 05:03:03;;;;;;;137.45;46.42;;;;;;;;;;4923289;28;20152;-69
2022/12/09 05:05:28;;;;;;;148.63;47.60;;;;;;;;;;4922702;28;20165;-67
2022/12/09 05:07:56;;;;;;;151.20;47.92;;;;;;;;;;4925847;28;20065;-68
2022/12/09 05:10:21;;;;;;;152.68;47.10;;;;;;;;;;4944357;28;20038;-68
2022/12/09 05:12:47;;;;;;;158.97;47.87;;;;;;;;;;4922873;28;20039;-68
2022/12/09 05:15:14;;;;;;;167.57;47.05;;;;;;;;;;4944357;28;20093;-69
2022/12/09 05:17:44;;;;;;;149.07;45.25;;;;;;;;;;4922798;28;20175;-68
2022/12/09 05:20:09;;;;;;;163.45;47.28;;;;;;;;;;4944407;28;20050;-69
2022/12/09 05:22:34;;;;;;;196.30;51.17;;;;;;;;;;4943804;28;20138;-69
2022/12/09 05:25:00;;;;;;;190.77;44.17;;;;;;;;;;4944555;28;20914;-68
2022/12/09 05:27:25;;;;;;;177.13;42.97;;;;;;;;;;4924166;28;20038;-68
2022/12/09 05:29:51;;;;;;;152.32;39.83;;;;;;;;;;4927110;28;20096;-68
2022/12/09 05:32:17;;;;;;;186.05;44.75;;;;;;;;;;4943052;28;20045;-69
2022/12/09 05:34:42;;;;;;;143.60;41.58;;;;;;;;;;4928122;28;20042;-69
2022/12/09 05:37:07;;;;;;;169.43;40.95;;;;;;;;;;4943033;28;20077;-67
2022/12/09 05:39:33;;;;;;;160.90;37.50;;;;;;;;;;4922046;28;20053;-69
2022/12/09 05:42:01;;;;;;;216.55;34.22;;;;;;;;;;4926215;28;20054;-66
2022/12/09 05:44:29;;;;;;;233.18;33.35;;;;;;;;;;4922453;28;20038;-68
2022/12/09 05:46:55;;;;;;;187.57;32.03;;;;;;;;;;4925155;28;20069;-68
2022/12/09 05:49:22;;;;;;;350.88;36.80;;;;;;;;;;4942274;28;20072;-67
2022/12/09 05:51:48;;;;;;;198.25;34.35;;;;;;;;;;4941791;28;20066;-68
2022/12/09 05:54:16;;;;;;;316.65;36.53;;;;;;;;;;4942000;28;20046;-68
2022/12/09 05:56:41;;;;;;;142.53;31.37;;;;;;;;;;4944365;28;20039;-69
2022/12/09 05:59:08;;;;;;;124.73;29.33;;;;;;;;;;4909534;28;20042;-68
2022/12/09 06:01:33;;;;;;;161.13;33.70;;;;;;;;;;4942202;28;20071;-68
2022/12/09 06:03:58;;;;;;;138.87;33.43;;;;;;;;;;4920978;28;20819;-68
2022/12/09 06:06:30;;;;;;;160.67;34.47;;;;;;;;;;4924895;28;20074;-67
2022/12/09 06:08:59;;;;;;;125.23;32.07;;;;;;;;;;4922230;28;20588;-68
2022/12/09 06:11:27;;;;;;;121.00;26.90;;;;;;;;;;4940565;28;20084;-67
2022/12/09 06:13:53;;;;;;;131.40;31.30;;;;;;;;;;4926565;28;20050;-68
2022/12/09 06:16:19;;;;;;;125.63;28.33;;;;;;;;;;4941692;28;20145;-67
2022/12/09 06:18:45;;;;;;;124.67;29.10;;;;;;;;;;4941719;28;20043;-66
2022/12/09 06:21:12;;;;;;;173.23;32.50;;;;;;;;;;4937866;28;20178;-66
2022/12/09 06:23:41;;;;;;;148.87;33.63;;;;;;;;;;4943265;28;20133;-66
2022/12/09 06:26:06;;;;;;;163.93;33.97;;;;;;;;;;4942581;28;20133;-67
2022/12/09 06:28:32;;;;;;;109.40;29.20;;;;;;;;;;4920771;28;20034;-66
2022/12/09 06:30:57;;;;;;;114.93;30.93;;;;;;;;;;4921406;28;20912;-66
2022/12/09 06:33:26;;;;;;;106.10;29.53;;;;;;;;;;4942108;28;20730;-67
2022/12/09 06:35:51;;;;;;;100.77;26.87;;;;;;;;;;4942937;28;20034;-67
2022/12/09 06:38:17;;;;;;;121.87;25.67;;;;;;;;;;4925038;28;21052;-67
2022/12/09 06:40:42;;;;;;;172.73;23.53;;;;;;;;;;4941870;28;20042;-67
2022/12/09 06:43:08;;;;;;;125.00;25.03;;;;;;;;;;4941426;28;20034;-68
2022/12/09 06:45:36;;;;;;;120.67;29.47;;;;;;;;;;4942551;28;20908;-67
2022/12/09 06:48:01;;;;;;;125.93;28.93;;;;;;;;;;4942467;28;20062;-66
2022/12/09 06:50:27;;;;;;;110.57;27.90;;;;;;;;;;4936893;28;20074;-67
2022/12/09 06:52:52;;;;;;;105.53;27.97;;;;;;;;;;4942887;28;20026;-68
2022/12/09 06:55:17;;;;;;;106.70;28.13;;;;;;;;;;4923787;28;22252;-67
2022/12/09 06:57:45;;;;;;;115.83;28.30;;;;;;;;;;4925206;28;20039;-67
2022/12/09 07:00:11;;;;;;;100.73;26.80;;;;;;;;;;4920393;28;20162;-67
2022/12/09 07:02:39;;;;;;;116.07;28.37;;;;;;;;;;4921468;28;20066;-66
2022/12/09 07:05:04;;;;;;;108.60;27.20;;;;;;;;;;4939302;28;20070;-68
2022/12/09 07:07:30;;;;;;;101.37;26.87;;;;;;;;;;4942434;28;20064;-67
2022/12/09 07:09:56;;;;;;;95.97;25.83;;;;;;;;;;4942256;28;20053;-67
2022/12/09 07:12:21;;;;;;;104.83;27.63;;;;;;;;;;4924983;28;20038;-67
2022/12/09 07:14:50;;;;;;;109.03;28.13;;;;;;;;;;4942834;28;20125;-69
2022/12/09 07:17:16;;;;;;;100.03;26.63;;;;;;;;;;4942790;28;20567;-66
2022/12/09 07:19:42;;;;;;;117.47;25.67;;;;;;;;;;4943014;28;20047;-66
2022/12/09 07:22:07;;;;;;;121.53;28.30;;;;;;;;;;4941472;28;20219;-67
2022/12/09 07:24:35;;;;;;;116.50;28.40;;;;;;;;;;4922222;28;20844;-67
2022/12/09 07:27:01;;;;;;;113.60;27.40;;;;;;;;;;4941801;28;20049;-66
2022/12/09 07:29:26;;;;;;;107.00;26.50;;;;;;;;;;4942982;28;20043;-66
2022/12/09 07:31:54;;;;;;;108.43;28.20;;;;;;;;;;4941316;28;20038;-67
2022/12/09 07:34:19;;;;;;;96.50;26.83;;;;;;;;;;4941938;28;20031;-67
2022/12/09 07:36:44;;;;;;;112.83;28.77;;;;;;;;;;4941197;28;20268;-67
2022/12/09 07:39:14;;;;;;;111.10;29.53;;;;;;;;;;4944507;28;20078;-66
2022/12/09 07:41:39;;;;;;;118.13;31.50;;;;;;;;;;4924399;28;20330;-67
2022/12/09 07:44:05;;;;;;;110.67;30.30;;;;;;;;;;4941964;28;20061;-67
2022/12/09 07:46:30;;;;;;;121.93;30.53;;;;;;;;;;4940615;28;20042;-67
2022/12/09 07:48:56;;;;;;;116.68;29.35;;;;;;;;;;4942010;28;20038;-67
2022/12/09 07:51:24;;;;;;;106.23;28.70;;;;;;;;;;4941752;28;20085;-68
2022/12/09 07:53:50;;;;;;;102.13;29.83;;;;;;;;;;4923581;28;20475;-66
2022/12/09 07:56:16;;;;;;;145.63;39.88;;;;;;;;;;4920078;28;20050;-65
2022/12/09 07:58:45;;;;;;;165.50;42.20;;;;;;;;;;4941637;28;20122;-66
2022/12/09 08:01:12;;;;;;;158.38;44.90;;;;;;;;;;4941529;28;20468;-67
2022/12/09 08:03:38;;;;;;;140.75;39.80;;;;;;;;;;4923459;28;20038;-68
2022/12/09 08:06:04;;;;;;;139.25;38.72;;;;;;;;;;4942246;28;20048;-67
2022/12/09 08:08:30;;;;;;;128.57;35.15;;;;;;;;;;4940929;28;20518;-67
2022/12/09 08:11:04;;;;;;;133.35;35.65;;;;;;;;;;4940849;28;20038;-67
2022/12/09 08:13:29;;;;;;;131.23;33.38;;;;;;;;;;4941301;28;20372;-67
2022/12/09 08:16:00;;;;;;;132.68;33.72;;;;;;;;;;4941679;28;20451;-67
2022/12/09 08:18:25;;;;;;;123.57;34.53;;;;;;;;;;4941357;28;20184;-68
2022/12/09 08:20:50;;;;;;;141.00;40.75;;;;;;;;;;4942600;28;20664;-67
2022/12/09 08:23:16;;;;;;;131.75;35.05;;;;;;;;;;4918433;28;20045;-67
2022/12/09 08:25:41;;;;;;;186.15;59.78;;;;;;;;;;4922659;28;20181;-67
2022/12/09 08:28:08;;;;;;;197.18;48.92;;;;;;;;;;4919884;28;20045;-67
2022/12/09 08:30:35;;;;;;;162.48;40.28;;;;;;;;;;4924760;28;20583;-67
2022/12/09 08:33:03;;;;;;;150.85;40.88;;;;;;;;;;4940964;28;20038;-67
2022/12/09 08:35:28;;;;;;;166.90;37.17;;;;;;;;;;4907121;28;20338;-68
2022/12/09 08:37:56;;;;;;;157.63;33.58;;;;;;;;;;4937697;28;20038;-68
2022/12/09 08:40:22;;;;;;;129.32;29.38;;;;;;;;;;4939195;28;20077;-68
2022/12/09 08:42:47;;;;;;;116.40;29.75;;;;;;;;;;4938850;28;20137;-68
2022/12/09 08:45:14;;;;;;;119.97;29.33;;;;;;;;;;4940587;28;20111;-67
2022/12/09 08:47:41;;;;;;;110.88;30.67;;;;;;;;;;4917954;28;20210;-67
2022/12/09 08:50:06;;;;;;;122.60;34.60;;;;;;;;;;4938898;28;20157;-67
2022/12/09 08:52:32;;;;;;;129.80;38.20;;;;;;;;;;4939612;28;21928;-67
2022/12/09 08:54:57;;;;;;;169.45;53.50;;;;;;;;;;4937493;28;20043;-67
2022/12/09 08:57:23;;;;;;;170.05;50.63;;;;;;;;;;4921937;28;20569;-68
2022/12/09 08:59:48;;;;;;;178.30;59.50;;;;;;;;;;4938626;28;20089;-68
2022/12/09 09:02:13;;;;;;;139.63;42.13;;;;;;;;;;4935972;28;20512;-67
2022/12/09 09:04:41;;;;;;;154.40;43.17;;;;;;;;;;4937386;28;20193;-68
2022/12/09 09:07:06;;;;;;;141.20;40.67;;;;;;;;;;4907272;28;20038;-67
2022/12/09 09:09:31;;;;;;;146.32;39.38;;;;;;;;;;4938664;28;20058;-68
2022/12/09 09:11:57;;;;;;;138.77;40.22;;;;;;;;;;4934729;28;20339;-69
2022/12/09 09:14:24;;;;;;;178.73;53.92;;;;;;;;;;4933506;28;20057;-67
2022/12/09 09:16:49;;;;;;;182.70;50.88;;;;;;;;;;4919852;28;20124;-68
2022/12/09 09:19:16;;;;;;;171.73;49.90;;;;;;;;;;4901853;28;20175;-68
2022/12/09 09:21:42;;;;;;;164.13;48.30;;;;;;;;;;4939692;28;20981;-69
2022/12/09 09:24:09;;;;;;;128.48;39.92;;;;;;;;;;4905659;28;20054;-68
2022/12/09 09:26:37;;;;;;;126.85;37.78;;;;;;;;;;4939186;28;20793;-68
2022/12/09 09:29:05;;;;;;;119.65;38.95;;;;;;;;;;4922381;28;20128;-68
2022/12/09 09:31:30;;;;;;;144.85;39.10;;;;;;;;;;4938445;28;20148;-68
2022/12/09 09:33:55;;;;;;;134.88;39.45;;;;;;;;;;4922040;28;20536;-69
2022/12/09 09:36:22;;;;;;;145.30;43.17;;;;;;;;;;4937678;28;20065;-68
2022/12/09 09:38:48;;;;;;;128.35;39.53;;;;;;;;;;4938994;28;21863;-68
2022/12/09 09:41:34;;;;;;;138.93;43.53;;;;;;;;;;4937168;28;20123;-68
2022/12/09 09:44:00;;;;;;;125.93;41.33;;;;;;;;;;4920980;28;20042;-69
2022/12/09 09:46:39;;;;;;;128.90;44.83;;;;;;;;;;4939055;28;20556;-68
2022/12/09 09:49:07;;;;;;;134.57;45.35;;;;;;;;;;4924332;28;20104;-68
2022/12/09 09:51:34;;;;;;;146.68;44.92;;;;;;;;;;4934232;28;20381;-70
2022/12/09 09:54:02;;;;;;;132.85;44.05;;;;;;;;;;4940201;28;20053;-67
2022/12/09 09:56:33;;;;;;;130.88;41.53;;;;;;;;;;4941955;28;20046;-70
2022/12/09 09:59:13;;;;;;;122.05;36.10;;;;;;;;;;4939506;28;20561;-69
2022/12/09 10:01:39;;;;;;;117.43;35.20;;;;;;;;;;4937613;28;20178;-69
2022/12/09 10:04:19;;;;;;;113.03;36.05;;;;;;;;;;4916120;28;20053;-70
2022/12/09 10:06:47;;;;;;;129.23;44.95;;;;;;;;;;4937716;28;20043;-72
2022/12/09 10:09:27;;;;;;;152.85;53.83;;;;;;;;;;4938267;28;20049;-70
2022/12/09 10:11:52;;;;;;;131.73;48.58;;;;;;;;;;4939532;28;20844;-70
2022/12/09 10:14:43;;;;;;;126.50;43.15;;;;;;;;;;4939670;28;20495;-70
2022/12/09 10:17:08;;;;;;;108.63;33.60;;;;;;;;;;4938212;28;20054;-70
2022/12/09 10:19:48;;;;;;;125.55;38.35;;;;;;;;;;4918004;28;20442;-70
2022/12/09 10:22:20;;;;;;;141.07;43.38;;;;;;;;;;4939911;28;20578;-71
2022/12/09 10:24:51;;;;;;;159.20;44.85;;;;;;;;;;4917487;28;20091;-69
2022/12/09 10:27:19;;;;;;;138.55;43.03;;;;;;;;;;4939377;28;20497;-70
2022/12/09 10:29:47;;;;;;;130.48;40.55;;;;;;;;;;4938295;28;20038;-69
2022/12/09 10:32:17;;;;;;;143.82;43.53;;;;;;;;;;4938628;28;21000;-70
2022/12/09 10:34:43;;;;;;;139.30;39.75;;;;;;;;;;4934254;28;20034;-69
2022/12/09 10:37:18;;;;;;;122.63;39.40;;;;;;;;;;4932245;28;20179;-69
2022/12/09 10:39:46;;;;;;;125.13;36.80;;;;;;;;;;4937621;28;20030;-70
2022/12/09 10:45:07;;;;;;;141.63;42.78;;;;;;;;;;4921414;28;20270;-70
2022/12/09 10:47:32;;;;;;;150.93;45.38;;;;;;;;;;4932324;28;20610;-69
2022/12/09 10:49:58;;;;;;;151.02;47.00;;;;;;;;;;4936854;28;20632;-70
2022/12/09 10:52:26;;;;;;;145.82;45.58;;;;;;;;;;4909535;28;20257;-70
2022/12/09 10:54:56;;;;;;;133.13;38.58;;;;;;;;;;4927904;28;20217;-70
2022/12/09 10:57:25;;;;;;;143.68;43.38;;;;;;;;;;4932447;28;20275;-69
2022/12/09 11:00:06;;;;;;;150.15;44.70;;;;;;;;;;4933479;28;20799;-68
2022/12/09 11:02:33;;;;;;;156.75;44.10;;;;;;;;;;4934893;28;20756;-68
2022/12/09 11:05:22;;;;;;;141.55;38.63;;;;;;;;;;4935028;28;20216;-71
2022/12/09 11:07:50;;;;;;;131.75;37.85;;;;;;;;;;4940010;28;20050;-68
2022/12/09 11:10:18;;;;;;;152.77;42.70;;;;;;;;;;4920195;28;20631;-69
2022/12/09 11:12:45;;;;;;;151.70;45.75;;;;;;;;;;4935726;28;20034;-69
2022/12/09 11:15:10;;;;;;;158.63;45.90;;;;;;;;;;4935196;28;20046;-69
2022/12/09 11:17:38;;;;;;;159.02;49.20;;;;;;;;;;4938010;28;20058;-69
2022/12/09 11:20:03;;;;;;;172.23;50.75;;;;;;;;;;4915846;28;20238;-70
2022/12/09 11:22:39;;;;;;;185.77;52.55;;;;;;;;;;4934785;28;20042;-69
2022/12/09 11:25:11;;;;;;;161.05;48.20;;;;;;;;;;4916671;28;20050;-69
2022/12/09 11:27:40;;;;;;;167.75;49.95;;;;;;;;;;4939621;28;20038;-71
2022/12/09 11:30:06;;;;;;;152.57;45.25;;;;;;;;;;4921818;28;20146;-70
2022/12/09 11:32:34;;;;;;;150.48;44.20;;;;;;;;;;4920496;28;20042;-70
2022/12/09 11:35:00;;;;;;;154.85;46.83;;;;;;;;;;4938598;28;20042;-68
2022/12/09 11:37:26;;;;;;;168.45;45.90;;;;;;;;;;4930944;28;20370;-70
2022/12/09 11:39:51;;;;;;;167.73;49.20;;;;;;;;;;4917279;28;20778;-70
2022/12/09 11:42:17;;;;;;;177.43;52.25;;;;;;;;;;4933944;28;20718;-70
2022/12/09 11:44:49;;;;;;;171.40;53.85;;;;;;;;;;4913140;28;20418;-70
2022/12/09 11:47:39;;;;;;;186.00;57.85;;;;;;;;;;4932567;28;20037;-70
2022/12/09 11:50:18;;;;;;;203.13;58.80;;;;;;;;;;4923634;28;20030;-72
2022/12/09 11:53:05;;;;;;;173.25;58.90;;;;;;;;;;4931725;28;20038;-71
2022/12/09 11:55:31;;;;;;;178.63;60.47;;;;;;;;;;4934713;28;20034;-71
2022/12/09 11:58:09;;;;;;;182.25;61.05;;;;;;;;;;4921209;28;20052;-70
2022/12/09 12:00:44;;;;;;;201.10;64.40;;;;;;;;;;4941892;28;20077;-70
2022/12/09 12:03:18;;;;;;;197.90;60.63;;;;;;;;;;4937515;28;20030;-71
2022/12/09 12:05:50;;;;;;;163.80;51.28;;;;;;;;;;4933915;28;20088;-72
2022/12/09 12:08:31;;;;;;;174.70;50.53;;;;;;;;;;4919873;28;21074;-72
2022/12/09 12:10:59;;;;;;;158.93;48.90;;;;;;;;;;4938555;28;20950;-72
2022/12/09 12:13:25;;;;;;;178.32;53.90;;;;;;;;;;4933959;28;20062;-71
2022/12/09 12:16:09;;;;;;;167.18;51.38;;;;;;;;;;4937631;28;20498;-67
2022/12/09 12:18:45;;;;;;;154.02;46.67;;;;;;;;;;4920318;28;20133;-67
2022/12/09 12:21:17;;;;;;;147.77;46.97;;;;;;;;;;4937783;28;20860;-66
2022/12/09 12:23:43;;;;;;;159.98;49.10;;;;;;;;;;4937540;28;20043;-69
2022/12/09 12:26:22;;;;;;;145.98;47.42;;;;;;;;;;4942202;28;20689;-69
2022/12/09 12:29:02;;;;;;;151.02;45.25;;;;;;;;;;4939669;28;20042;-69
2022/12/09 12:31:41;;;;;;;148.10;45.33;;;;;;;;;;4940359;28;20041;-67
2022/12/09 12:34:23;;;;;;;137.32;43.60;;;;;;;;;;4903438;28;20122;-68
2022/12/09 12:37:05;;;;;;;125.20;40.92;;;;;;;;;;4938429;28;20870;-68
2022/12/09 12:39:30;;;;;;;137.45;43.42;;;;;;;;;;4941133;28;20042;-66
2022/12/09 12:42:04;;;;;;;141.23;43.55;;;;;;;;;;4941766;28;20053;-67
2022/12/09 12:47:41;;;;;;;149.40;47.03;;;;;;;;;;4941932;28;20049;-68
2022/12/09 12:50:09;;;;;;;138.40;42.47;;;;;;;;;;4942368;28;20992;-68
2022/12/09 12:52:43;;;;;;;130.40;41.42;;;;;;;;;;4942841;28;20030;-67
2022/12/09 12:55:12;;;;;;;143.45;42.33;;;;;;;;;;4919249;28;20112;-67
2022/12/09 12:57:56;;;;;;;134.95;43.22;;;;;;;;;;4939310;28;20046;-67
2022/12/09 13:00:23;;;;;;;131.32;40.92;;;;;;;;;;4939945;28;20050;-66
2022/12/09 13:03:04;;;;;;;133.65;42.33;;;;;;;;;;4923365;28;20046;-69
2022/12/09 13:05:38;;;;;;;139.32;44.47;;;;;;;;;;4942305;28;20557;-67
2022/12/09 13:08:15;;;;;;;140.52;44.20;;;;;;;;;;4941431;28;20049;-67
2022/12/09 13:10:43;;;;;;;143.45;46.30;;;;;;;;;;4941337;28;20072;-68
2022/12/09 13:13:17;;;;;;;159.52;49.75;;;;;;;;;;4942706;28;20745;-68
2022/12/09 13:15:44;;;;;;;152.07;48.75;;;;;;;;;;4941928;28;20115;-67
2022/12/09 13:18:18;;;;;;;149.95;47.22;;;;;;;;;;4922971;28;20038;-67
2022/12/09 13:20:51;;;;;;;134.20;46.33;;;;;;;;;;4941798;28;20046;-67
2022/12/09 13:23:24;;;;;;;150.35;45.17;;;;;;;;;;4940034;28;20066;-66
2022/12/09 13:25:52;;;;;;;129.77;42.17;;;;;;;;;;4941044;28;20304;-66
2022/12/09 13:28:21;;;;;;;146.48;44.60;;;;;;;;;;4941455;28;20795;-67
2022/12/09 13:30:54;;;;;;;149.07;45.17;;;;;;;;;;4939931;28;20038;-67
2022/12/09 13:33:38;;;;;;;152.18;43.65;;;;;;;;;;4926884;28;20041;-67
2022/12/09 13:36:04;;;;;;;151.57;42.60;;;;;;;;;;4942267;28;20041;-66
2022/12/09 13:38:35;;;;;;;149.70;45.72;;;;;;;;;;4941286;28;20066;-66
2022/12/09 13:41:20;;;;;;;168.70;53.92;;;;;;;;;;4922463;28;20043;-66
2022/12/09 13:43:48;;;;;;;173.63;59.80;;;;;;;;;;4940998;28;20422;-66
2022/12/09 13:46:20;;;;;;;183.60;60.85;;;;;;;;;;4938986;28;20044;-66
2022/12/09 13:48:48;;;;;;;170.95;61.17;;;;;;;;;;4940317;28;20280;-66
2022/12/09 13:51:19;;;;;;;185.02;62.03;;;;;;;;;;4938811;28;20042;-66
2022/12/09 13:53:56;;;;;;;174.23;56.00;;;;;;;;;;4938791;28;20675;-67
2022/12/09 13:56:24;;;;;;;157.93;56.22;;;;;;;;;;4913757;28;20049;-66
2022/12/09 13:59:12;;;;;;;155.13;54.60;;;;;;;;;;4934841;28;20042;-66
2022/12/09 14:01:46;;;;;;;160.18;55.45;;;;;;;;;;4936549;28;20936;-66
2022/12/09 14:04:33;;;;;;;144.20;50.55;;;;;;;;;;4934120;28;20034;-65
2022/12/09 14:06:58;;;;;;;139.02;49.30;;;;;;;;;;4937186;28;20042;-66
2022/12/09 14:09:42;;;;;;;139.40;50.67;;;;;;;;;;4937428;28;20565;-68
2022/12/09 14:12:12;;;;;;;132.30;48.33;;;;;;;;;;4935363;28;20721;-66
2022/12/09 14:14:43;;;;;;;150.02;51.63;;;;;;;;;;4929047;28;20361;-68
2022/12/09 14:17:23;;;;;;;154.90;50.92;;;;;;;;;;4932315;28;20053;-67
2022/12/09 14:19:52;;;;;;;141.32;49.17;;;;;;;;;;4937025;28;20363;-66
2022/12/09 14:22:18;;;;;;;145.10;50.55;;;;;;;;;;4938031;28;21006;-68